Time;durP1;ratioP1;P1;durP2;ratioP2;P2;SDS_P1;SDS_P2;PMS_P1;PMS_P2;Temp;Humidity;BMP_temperature;BMP_pressure;BME280_temperature;BME280_humidity;BME280_pressure;Samples;Min_cycle;Max_cycle;Signal;HPM_P1;HPM_P2
2023/01/04 00:00:15;;;;;;;4.07;2.20;;;16.20;59.50;17.10;101470.00;;;;5008315;28;20684;-46
2023/01/04 00:02:41;;;;;;;3.50;1.93;;;16.20;59.50;17.00;101461.00;;;;4991974;28;20574;-48
2023/01/04 00:05:07;;;;;;;3.10;2.10;;;16.10;59.40;17.00;101458.00;;;;5008017;28;20192;-47
2023/01/04 00:07:32;;;;;;;2.87;2.10;;;16.10;59.50;17.00;101457.00;;;;4991878;28;20180;-47
2023/01/04 00:09:58;;;;;;;3.37;2.20;;;16.10;59.60;17.00;101450.00;;;;5008099;28;20169;-47
2023/01/04 00:12:24;;;;;;;3.40;2.07;;;16.00;59.70;17.00;101381.00;;;;4991803;28;20183;-47
2023/01/04 00:14:50;;;;;;;2.27;2.07;;;16.10;59.50;16.90;101450.00;;;;5007875;28;20569;-48
2023/01/04 00:17:15;;;;;;;3.33;2.17;;;16.00;59.40;16.90;101449.00;;;;5009316;28;20176;-46
2023/01/04 00:19:41;;;;;;;2.13;1.80;;;16.00;59.40;16.90;101447.00;;;;5010185;28;20187;-46
2023/01/04 00:22:07;;;;;;;2.40;1.90;;;15.90;59.60;16.90;101435.00;;;;5007984;28;20183;-46
2023/01/04 00:24:32;;;;;;;3.00;2.10;;;15.90;59.60;16.90;101443.00;;;;4991401;28;20184;-45
2023/01/04 00:26:58;;;;;;;3.00;1.90;;;16.00;60.30;16.90;101436.00;;;;5007659;28;20283;-46
2023/01/04 00:29:24;;;;;;;2.80;2.00;;;15.90;59.60;16.90;101350.00;;;;5009134;28;20195;-47
2023/01/04 00:31:49;;;;;;;2.40;1.90;;;15.90;59.60;16.90;101440.00;;;;4994669;28;20225;-47
2023/01/04 00:34:16;;;;;;;3.40;2.10;;;16.00;59.80;16.60;101408.00;;;;5011351;28;20195;-46
2023/01/04 00:36:42;;;;;;;1.80;1.70;;;15.90;59.60;16.80;101408.00;;;;4995229;28;20189;-47
2023/01/04 00:39:11;;;;;;;3.87;2.07;;;15.90;60.30;16.90;101420.00;;;;5011629;28;20176;-47
2023/01/04 00:42:03;;;;;;;2.87;1.80;;;16.00;59.80;16.90;101397.00;;;;5010820;28;20187;-46
2023/01/04 00:44:33;;;;;;;1.83;1.60;;;15.90;59.70;16.90;101225.00;;;;5011441;28;20203;-46
2023/01/04 00:46:59;;;;;;;2.20;1.90;;;15.90;59.80;16.90;101303.00;;;;5011204;28;20261;-46
2023/01/04 00:49:25;;;;;;;2.03;1.80;;;15.80;59.70;16.80;101405.00;;;;5011536;28;20267;-46
2023/01/04 00:51:51;;;;;;;3.57;1.90;;;15.80;59.60;16.80;101303.00;;;;5010964;28;20191;-47
2023/01/04 00:54:17;;;;;;;2.60;1.90;;;15.80;59.60;16.80;101383.00;;;;5011312;28;20281;-48
2023/01/04 00:56:43;;;;;;;2.50;1.97;;;15.80;59.60;16.80;101386.00;;;;5011983;28;20234;-47
2023/01/04 00:59:09;;;;;;;2.63;1.87;;;15.70;59.50;16.70;101386.00;;;;5011618;28;20168;-47
2023/01/04 01:01:35;;;;;;;1.93;1.40;;;15.70;59.60;16.70;101343.00;;;;5014514;28;20278;-48
2023/01/04 01:04:02;;;;;;;2.37;1.80;;;15.80;59.60;16.70;101304.00;;;;5026801;28;20210;-46
2023/01/04 01:06:29;;;;;;;2.30;1.80;;;15.70;59.60;16.70;101376.00;;;;5015449;28;20255;-47
2023/01/04 01:08:54;;;;;;;2.00;1.80;;;15.70;60.20;16.70;101298.00;;;;5011195;28;20267;-47
2023/01/04 01:11:20;;;;;;;2.70;1.67;;;15.70;59.50;16.60;101366.00;;;;5010784;28;20179;-47
2023/01/04 01:13:46;;;;;;;2.20;1.70;;;15.70;59.50;16.60;101323.00;;;;4994511;28;20206;-47
2023/01/04 01:16:14;;;;;;;2.13;1.80;;;15.70;59.50;16.60;101357.00;;;;4994116;28;20214;-47
2023/01/04 01:18:41;;;;;;;2.60;1.70;;;15.70;59.60;16.60;101278.00;;;;5010357;28;20192;-47
2023/01/04 01:21:10;;;;;;;2.97;1.80;;;15.70;59.70;16.60;101359.00;;;;4994321;28;20187;-46
2023/01/04 01:23:36;;;;;;;1.80;1.70;;;15.60;59.60;16.60;101348.00;;;;5011118;28;20196;-46
2023/01/04 01:26:02;;;;;;;1.87;1.63;;;15.70;59.60;16.60;101341.00;;;;4994618;28;20169;-47
2023/01/04 01:28:28;;;;;;;2.10;1.73;;;15.60;59.60;16.60;101267.00;;;;5010674;28;20179;-47
2023/01/04 01:30:54;;;;;;;2.80;1.80;;;15.70;59.70;16.60;101337.00;;;;4994420;28;20180;-47
2023/01/04 01:33:20;;;;;;;1.90;1.50;;;15.60;59.60;16.60;101331.00;;;;5010726;28;20185;-46
2023/01/04 01:35:46;;;;;;;2.13;1.47;;;15.60;59.70;16.60;101328.00;;;;5011080;28;20648;-47
2023/01/04 01:38:11;;;;;;;1.87;1.50;;;15.60;59.60;16.50;101328.00;;;;5011741;28;20262;-47
2023/01/04 01:40:41;;;;;;;2.40;1.60;;;15.60;59.60;16.50;101334.00;;;;5010477;28;20318;-46
2023/01/04 01:43:21;;;;;;;2.57;1.80;;;15.60;59.70;16.50;101329.00;;;;5010521;28;20168;-47
2023/01/04 01:45:50;;;;;;;2.80;1.77;;;15.60;59.90;16.50;101313.00;;;;5010807;28;20156;-49
2023/01/04 01:48:19;;;;;;;1.83;1.60;;;15.60;59.90;16.50;101321.00;;;;5010722;28;20199;-46
2023/01/04 01:50:51;;;;;;;2.63;1.80;;;15.50;59.80;16.50;101320.00;;;;5010649;28;20182;-46
2023/01/04 01:53:17;;;;;;;2.67;1.80;;;15.60;59.90;16.30;101307.00;;;;4993662;28;20236;-46
2023/01/04 01:55:42;;;;;;;2.00;1.67;;;15.60;59.90;16.50;101302.00;;;;5010970;28;20250;-46
2023/01/04 01:58:08;;;;;;;2.30;1.80;;;15.60;59.90;16.50;101308.00;;;;5010525;28;20176;-47
2023/01/04 02:00:34;;;;;;;2.83;1.80;;;15.60;59.90;16.50;101300.00;;;;5010344;28;20196;-47
2023/01/04 02:03:21;;;;;;;2.60;1.90;;;15.50;59.80;16.50;101302.00;;;;4993432;28;20267;-46
2023/01/04 02:05:50;;;;;;;2.00;1.53;;;15.50;60.10;16.50;101201.00;;;;5010665;28;20156;-46
2023/01/04 02:08:15;;;;;;;2.00;1.50;;;15.40;60.00;16.50;101287.00;;;;5011903;28;20216;-47
2023/01/04 02:10:41;;;;;;;1.93;1.70;;;15.50;60.10;16.40;101291.00;;;;5016753;28;20175;-44
2023/01/04 02:14:25;;;;;;;2.33;1.60;;;15.50;60.00;16.50;101281.00;;;;5016893;28;20175;-46
2023/01/04 02:16:39;;;;;;;1.90;1.60;;;15.40;60.10;16.50;101286.00;;;;5012755;28;20200;-47
2023/01/04 02:19:35;;;;;;;1.73;1.60;;;15.50;60.10;16.50;101285.00;;;;5010901;28;20180;-46
2023/01/04 02:22:18;;;;;;;2.37;1.80;;;15.50;60.30;16.40;101282.00;;;;5009945;28;20215;-47
2023/01/04 02:25:04;;;;;;;2.60;1.80;;;15.40;60.20;16.40;101180.00;;;;5010128;28;20195;-46
2023/01/04 02:27:54;;;;;;;2.50;1.70;;;15.40;60.40;15.80;101182.00;;;;5009386;28;20281;-47
2023/01/04 02:30:44;;;;;;;1.87;1.57;;;15.40;60.40;16.30;101266.00;;;;4993395;28;20227;-46
2023/01/04 02:33:28;;;;;;;3.10;1.67;;;15.40;60.50;16.10;101236.00;;;;5009683;28;20176;-46
2023/01/04 02:36:13;;;;;;;3.30;1.83;;;15.40;60.50;16.30;101276.00;;;;5010044;28;20176;-46
2023/01/04 02:39:26;;;;;;;1.90;1.70;;;15.40;60.70;16.30;101260.00;;;;5010080;28;20259;-46
2023/01/04 02:42:01;;;;;;;2.57;1.50;;;15.40;60.80;16.30;101249.00;;;;5009838;28;20179;-47
2023/01/04 02:44:56;;;;;;;2.57;1.70;;;15.40;60.70;16.30;101256.00;;;;5010818;28;20194;-46
2023/01/04 02:50:32;;;;;;;3.60;1.83;;;15.30;60.80;16.20;101247.00;;;;4996278;28;20567;-45
2023/01/04 02:53:12;;;;;;;2.80;1.70;;;15.20;60.80;16.20;101086.00;;;;5009025;28;20156;-45
2023/01/04 02:56:06;;;;;;;3.20;1.80;;;15.20;60.90;16.20;101228.00;;;;5009953;28;20156;-46
2023/01/04 02:58:44;;;;;;;2.70;1.70;;;15.30;61.10;16.20;101143.00;;;;5009257;28;20162;-45
2023/01/04 03:08:33;;;;;;;2.70;1.60;;;15.30;61.20;16.20;101210.00;;;;4988146;28;20966;-47
2023/01/04 03:14:22;;;;;;;2.57;1.90;;;15.30;61.30;16.10;101211.00;;;;5009318;28;20265;-45
2023/01/04 03:16:47;;;;;;;2.73;1.60;;;15.30;61.20;16.10;101194.00;;;;4992964;28;20532;-46
2023/01/04 03:19:13;;;;;;;2.20;1.60;;;15.30;61.10;16.10;101211.00;;;;4992433;28;20297;-47
2023/01/04 03:21:42;;;;;;;2.40;1.70;;;15.30;61.20;16.20;101194.00;;;;4992666;28;20191;-47
2023/01/04 03:35:53;;;;;;;2.73;1.50;;;15.20;61.20;16.20;101177.00;;;;5008652;28;20248;-46
2023/01/04 03:51:04;;;;;;;2.67;1.53;;;15.20;61.60;16.10;101074.00;;;;5013933;28;20687;-47
2023/01/04 03:54:08;;;;;;;1.90;1.63;;;15.10;61.40;16.10;101155.00;;;;5009846;28;20229;-47
2023/01/04 03:56:36;;;;;;;2.57;1.33;;;15.10;61.40;16.10;101070.00;;;;5008420;28;20265;-46
2023/01/04 03:59:01;;;;;;;1.83;1.53;;;15.20;61.60;16.10;101146.00;;;;5008430;28;20176;-45
2023/01/04 04:01:27;;;;;;;2.20;1.43;;;15.10;62.20;16.10;101158.00;;;;5008426;28;20195;-46
2023/01/04 04:09:22;;;;;;;1.53;1.40;;;15.10;61.40;16.00;101143.00;;;;5008510;28;20214;-46
2023/01/04 04:11:47;;;;;;;2.20;1.40;;;15.10;61.50;16.00;101144.00;;;;5009230;28;20188;-47
2023/01/04 04:14:13;;;;;;;2.80;1.60;;;15.00;61.50;16.00;101118.00;;;;4991609;28;20195;-47
2023/01/04 04:16:39;;;;;;;2.20;1.47;;;15.00;61.70;16.00;101117.00;;;;5008333;28;20278;-45
2023/01/04 04:19:05;;;;;;;1.80;1.50;;;15.00;61.60;16.00;101022.00;;;;5008353;28;20194;-46
2023/01/04 04:21:30;;;;;;;1.93;1.50;;;15.00;61.70;16.00;101036.00;;;;5007910;28;20663;-46
2023/01/04 04:23:56;;;;;;;1.77;1.40;;;15.00;61.70;16.00;101039.00;;;;5023050;28;20801;-45
2023/01/04 04:26:22;;;;;;;3.47;1.60;;;15.00;61.80;16.00;101135.00;;;;5019332;28;20578;-46
2023/01/04 04:28:48;;;;;;;3.90;1.40;;;15.10;62.30;16.00;101121.00;;;;5007752;28;20234;-46
2023/01/04 04:31:14;;;;;;;2.73;1.40;;;15.10;62.50;16.00;101116.00;;;;5007653;28;20179;-48
2023/01/04 04:33:39;;;;;;;1.87;1.23;;;15.00;62.70;16.00;101111.00;;;;4992220;28;20200;-46
2023/01/04 04:36:05;;;;;;;1.43;1.13;;;14.90;62.50;16.00;101128.00;;;;4956085;28;20271;-46
2023/01/04 04:38:31;;;;;;;1.87;1.30;;;14.90;62.60;15.90;101121.00;;;;4956298;28;20184;-47
2023/01/04 04:43:41;;;;;;;1.50;1.30;;;14.80;62.60;15.90;101105.00;;;;4974956;28;20208;-46
2023/01/04 04:46:07;;;;;;;2.50;1.60;;;14.70;62.50;15.80;101113.00;;;;4990229;28;20634;-46
2023/01/04 04:48:32;;;;;;;1.50;1.40;;;14.70;62.70;15.80;101104.00;;;;4989504;28;20191;-46
2023/01/04 04:50:58;;;;;;;1.83;1.20;;;14.70;62.80;15.70;101094.00;;;;4989411;28;20188;-47
2023/01/04 04:53:24;;;;;;;1.50;1.33;;;14.70;62.70;15.70;101109.00;;;;4989308;28;20204;-47
2023/01/04 04:55:51;;;;;;;2.00;1.13;;;14.70;62.30;15.70;101008.00;;;;4972563;28;20180;-46
2023/01/04 04:58:17;;;;;;;1.90;1.50;;;14.70;62.40;15.60;101025.00;;;;4973064;28;20183;-47
2023/01/04 05:00:43;;;;;;;1.57;1.20;;;14.80;62.30;15.60;101102.00;;;;4972618;28;20220;-46
2023/01/04 05:03:08;;;;;;;1.63;1.10;;;14.70;62.50;15.60;101092.00;;;;4989167;28;20189;-48
2023/01/04 05:05:34;;;;;;;2.03;1.30;;;14.60;62.60;15.60;101088.00;;;;4992418;28;20195;-46
2023/01/04 05:08:00;;;;;;;1.50;1.27;;;14.60;62.50;15.60;101096.00;;;;4975136;28;20665;-47
2023/01/04 05:10:25;;;;;;;1.40;1.30;;;14.60;62.40;15.50;101077.00;;;;4989190;28;20177;-45
2023/01/04 05:13:00;;;;;;;1.77;1.47;;;14.60;62.50;15.50;101092.00;;;;4972538;28;20764;-45
2023/01/04 05:15:40;;;;;;;1.47;1.10;;;14.60;62.60;15.50;101090.00;;;;4991432;28;20222;-46
2023/01/04 05:18:06;;;;;;;1.70;1.30;;;14.60;62.70;15.40;101091.00;;;;4985105;28;20192;-46
2023/01/04 05:20:32;;;;;;;1.60;1.30;;;14.60;62.50;15.40;101067.00;;;;5012088;28;20202;-45
2023/01/04 05:22:58;;;;;;;2.10;1.40;;;14.60;62.50;15.40;101081.00;;;;4994932;28;20180;-47
2023/01/04 05:25:24;;;;;;;2.70;1.37;;;14.60;62.40;15.40;101028.00;;;;5011809;28;20786;-46
2023/01/04 05:27:49;;;;;;;1.43;1.33;;;14.60;62.50;15.40;101077.00;;;;5011910;28;20179;-48
2023/01/04 05:33:00;;;;;;;1.93;1.30;;;14.60;62.70;15.40;101069.00;;;;5011850;28;20222;-46
2023/01/04 05:35:26;;;;;;;2.90;1.50;;;14.60;62.70;15.40;101048.00;;;;5011663;28;20196;-45
2023/01/04 05:37:51;;;;;;;3.20;1.43;;;14.50;62.50;15.30;101073.00;;;;5012002;28;20859;-46
2023/01/04 05:40:18;;;;;;;3.77;1.23;;;14.50;62.50;15.30;101066.00;;;;4995764;28;20679;-47
2023/01/04 05:42:44;;;;;;;2.63;1.30;;;14.50;62.60;15.30;101030.00;;;;4994971;28;20216;-46
2023/01/04 05:45:10;;;;;;;1.83;1.27;;;14.50;62.60;15.30;101059.00;;;;5011451;28;20563;-47
2023/01/04 05:47:35;;;;;;;1.50;1.20;;;14.50;62.70;15.30;101050.00;;;;5011150;28;20222;-44
2023/01/04 05:50:02;;;;;;;1.97;1.40;;;14.50;62.70;15.20;100956.00;;;;5007620;28;20259;-46
2023/01/04 05:52:28;;;;;;;2.23;1.30;;;14.50;62.70;15.20;101051.00;;;;4989280;28;20208;-47
2023/01/04 05:54:53;;;;;;;1.23;1.07;;;14.50;62.70;15.20;101029.00;;;;4991707;28;20235;-45
2023/01/04 05:57:19;;;;;;;1.40;1.07;;;14.50;62.60;15.20;100944.00;;;;4974572;28;20208;-45
2023/01/04 05:59:45;;;;;;;1.10;1.00;;;14.50;62.70;15.20;100943.00;;;;4976851;28;20210;-47
2023/01/04 06:02:20;;;;;;;1.23;1.10;;;14.50;62.70;15.20;101027.00;;;;4997052;28;20606;-44
2023/01/04 06:04:46;;;;;;;1.03;1.00;;;14.40;62.70;15.20;101023.00;;;;5010567;28;20202;-46
2023/01/04 06:07:12;;;;;;;1.40;0.90;;;14.50;62.70;15.20;101008.00;;;;5011052;28;20168;-46
2023/01/04 06:09:38;;;;;;;1.30;1.00;;;14.40;62.60;15.20;101004.00;;;;5010731;28;20270;-47
2023/01/04 06:12:04;;;;;;;1.10;1.00;;;14.40;62.60;15.20;100992.00;;;;5010120;28;20358;-45
2023/01/04 06:14:30;;;;;;;1.10;1.00;;;14.40;62.70;14.90;101020.00;;;;5009650;28;20199;-46
2023/01/04 06:16:56;;;;;;;1.03;0.90;;;14.40;62.80;15.20;101003.00;;;;4993888;28;20167;-46
2023/01/04 06:19:21;;;;;;;0.80;0.80;;;14.40;62.70;15.20;100932.00;;;;5009728;28;20641;-47
2023/01/04 06:21:47;;;;;;;1.00;0.73;;;14.40;62.80;15.10;100988.00;;;;5009362;28;20238;-46
2023/01/04 06:24:13;;;;;;;0.70;0.70;;;14.40;62.70;15.10;100996.00;;;;5011453;28;20230;-47
2023/01/04 06:26:38;;;;;;;0.80;0.80;;;14.40;62.90;15.10;100996.00;;;;5014029;28;20168;-48
2023/01/04 06:29:04;;;;;;;0.53;0.53;;;14.40;62.80;15.10;100984.00;;;;5015458;28;20176;-48
2023/01/04 06:31:32;;;;;;;0.90;0.90;;;14.30;62.70;15.10;100992.00;;;;5015736;28;20640;-47
2023/01/04 06:33:58;;;;;;;0.83;0.83;;;14.30;63.00;15.10;100918.00;;;;5017634;28;20198;-46
2023/01/04 06:36:24;;;;;;;0.60;0.60;;;14.30;63.20;15.10;100989.00;;;;5013491;28;20260;-46
2023/01/04 06:38:50;;;;;;;0.90;0.90;;;14.40;63.30;15.10;100984.00;;;;5009612;28;20207;-48
2023/01/04 06:41:15;;;;;;;1.00;1.00;;;14.30;63.10;15.10;100898.00;;;;5009259;28;20187;-47
2023/01/04 06:43:41;;;;;;;1.03;0.80;;;14.30;63.00;15.00;100895.00;;;;5005707;28;20199;-45
2023/01/04 06:46:07;;;;;;;4.63;1.17;;;14.30;63.30;15.00;100965.00;;;;5029030;28;20171;-47
2023/01/04 06:48:33;;;;;;;0.90;0.90;;;14.30;63.30;15.00;100986.00;;;;5012588;28;20186;-46
2023/01/04 06:50:58;;;;;;;1.17;0.70;;;14.20;63.30;15.00;100972.00;;;;5029441;28;20628;-46
2023/01/04 06:53:24;;;;;;;0.90;0.90;;;14.20;63.60;15.00;100879.00;;;;5012971;28;20191;-48
2023/01/04 06:55:50;;;;;;;0.97;0.80;;;14.10;63.60;15.00;100976.00;;;;5029532;28;20214;-46
2023/01/04 06:58:16;;;;;;;0.93;0.70;;;14.20;63.50;15.10;100973.00;;;;5012595;28;20171;-45
2023/01/04 07:00:41;;;;;;;0.90;0.83;;;14.20;63.20;15.20;100966.00;;;;5028580;28;20761;-47
2023/01/04 07:03:08;;;;;;;0.63;0.63;;;14.20;63.10;15.20;100981.00;;;;5028559;28;20663;-46
2023/01/04 07:05:34;;;;;;;0.93;0.77;;;14.20;63.10;15.20;100980.00;;;;5029307;28;20194;-46
2023/01/04 07:08:03;;;;;;;0.97;0.87;;;14.20;63.20;15.20;100977.00;;;;5029091;28;20190;-46
2023/01/04 07:10:29;;;;;;;3.87;1.10;;;14.20;63.20;15.30;100987.00;;;;5029220;28;20171;-46
2023/01/04 07:12:54;;;;;;;0.70;0.70;;;14.30;63.20;15.30;100977.00;;;;5011815;28;20171;-45
2023/01/04 07:15:20;;;;;;;0.60;0.60;;;14.30;63.20;15.30;100890.00;;;;5028956;28;20194;-47
2023/01/04 07:17:47;;;;;;;0.83;0.70;;;14.30;63.10;15.30;100906.00;;;;5028588;28;20261;-46
2023/01/04 07:20:13;;;;;;;0.53;0.50;;;14.30;63.20;15.30;100883.00;;;;5012351;28;20187;-48
2023/01/04 07:22:38;;;;;;;0.53;0.53;;;14.30;63.00;15.30;100978.00;;;;4995495;28;20254;-45
2023/01/04 07:25:04;;;;;;;0.70;0.70;;;14.30;62.90;15.30;100956.00;;;;5012319;28;20284;-47
2023/01/04 07:27:30;;;;;;;0.60;0.60;;;14.30;62.90;15.30;100868.00;;;;4995432;28;20198;-47
2023/01/04 07:29:56;;;;;;;0.50;0.50;;;14.30;62.90;15.00;100961.00;;;;5028680;28;20229;-47
2023/01/04 07:32:22;;;;;;;0.57;0.50;;;14.30;62.80;15.00;100958.00;;;;5012386;28;20171;-47
2023/01/04 07:34:47;;;;;;;0.50;0.50;;;14.30;62.70;15.30;100958.00;;;;5012266;28;20194;-46
2023/01/04 07:37:14;;;;;;;0.57;0.57;;;14.40;63.00;15.30;100870.00;;;;5027740;28;20167;-47
2023/01/04 07:39:40;;;;;;;1.43;0.73;;;14.30;62.80;15.30;100965.00;;;;5028533;28;20163;-46
2023/01/04 07:42:06;;;;;;;0.67;0.60;;;14.30;62.80;15.30;100966.00;;;;5027932;28;20186;-47
2023/01/04 07:44:32;;;;;;;0.57;0.57;;;14.40;62.90;15.40;100958.00;;;;5011656;28;20253;-48
2023/01/04 07:46:58;;;;;;;0.63;0.63;;;14.40;62.90;15.40;100956.00;;;;5028419;28;20173;-46
2023/01/04 07:49:24;;;;;;;0.70;0.70;;;14.40;62.90;15.40;100959.00;;;;5011834;28;20279;-47
2023/01/04 07:51:49;;;;;;;0.60;0.60;;;14.40;62.80;15.40;100968.00;;;;5027901;28;20549;-46
2023/01/04 07:54:16;;;;;;;0.87;0.77;;;14.40;62.90;15.40;100963.00;;;;5028543;28;20783;-46
2023/01/04 07:56:42;;;;;;;1.10;0.97;;;14.40;62.90;15.40;100971.00;;;;5028422;28;20237;-46
2023/01/04 07:59:09;;;;;;;0.53;0.50;;;14.40;62.90;15.40;100892.00;;;;5011689;28;20571;-46
2023/01/04 08:01:36;;;;;;;0.70;0.70;;;14.40;62.90;15.40;100973.00;;;;5027646;28;20743;-47
2023/01/04 08:04:02;;;;;;;0.60;0.60;;;14.40;62.80;15.40;100980.00;;;;5027696;28;20210;-46
2023/01/04 08:06:28;;;;;;;0.63;0.63;;;14.30;62.90;15.40;100985.00;;;;5028177;28;20205;-46
2023/01/04 08:08:53;;;;;;;0.57;0.57;;;14.30;62.90;15.40;100896.00;;;;5029292;28;20596;-45
2023/01/04 08:11:21;;;;;;;0.50;0.50;;;14.40;62.90;15.40;100966.00;;;;4994729;28;20262;-46
2023/01/04 08:13:47;;;;;;;0.80;0.80;;;14.40;63.00;15.40;100929.00;;;;5011976;28;20217;-46
2023/01/04 08:16:34;;;;;;;0.70;0.70;;;14.40;63.10;15.20;100992.00;;;;5011774;28;20194;-48
2023/01/04 08:19:03;;;;;;;0.63;0.60;;;14.30;63.20;15.10;100972.00;;;;5011483;28;20193;-51
2023/01/04 08:21:30;;;;;;;0.83;0.83;;;14.30;63.20;15.40;100994.00;;;;4988169;28;20188;-46
2023/01/04 08:23:56;;;;;;;0.60;0.60;;;14.30;63.10;15.40;100907.00;;;;4960440;28;20210;-45
2023/01/04 08:26:21;;;;;;;0.80;0.70;;;14.30;63.20;15.40;100997.00;;;;4962145;28;20171;-48
2023/01/04 08:28:48;;;;;;;0.80;0.80;;;14.30;63.20;15.40;100985.00;;;;4991531;28;20730;-46
2023/01/04 08:31:19;;;;;;;0.77;0.77;;;14.30;63.30;15.30;100990.00;;;;4974965;28;20657;-45
2023/01/04 08:33:45;;;;;;;0.83;0.83;;;14.30;63.30;15.40;100896.00;;;;4988143;28;20696;-46
2023/01/04 08:36:22;;;;;;;2.37;0.70;;;14.30;63.30;15.40;100900.00;;;;4988034;28;20244;-47
2023/01/04 08:38:49;;;;;;;2.77;0.80;;;14.30;63.40;15.40;100965.00;;;;5004392;28;20198;-47
2023/01/04 08:41:15;;;;;;;3.67;0.80;;;14.40;63.40;15.40;100973.00;;;;5006263;28;20293;-46
2023/01/04 08:43:41;;;;;;;1.50;1.10;;;14.40;63.70;15.40;100877.00;;;;5006600;28;20691;-45
2023/01/04 08:46:07;;;;;;;1.60;1.23;;;14.40;64.10;15.50;100888.00;;;;5006419;28;20229;-48
2023/01/04 08:48:33;;;;;;;2.10;1.27;;;14.50;64.40;15.50;100970.00;;;;4989930;28;20172;-46
2023/01/04 08:50:59;;;;;;;2.13;1.10;;;14.60;64.30;15.60;100891.00;;;;5010322;28;20176;-47
2023/01/04 08:53:26;;;;;;;1.00;0.77;;;14.70;64.30;15.60;100963.00;;;;4994120;28;20267;-47
2023/01/04 08:55:51;;;;;;;2.13;0.73;;;14.80;64.00;15.70;100875.00;;;;4994384;28;20267;-47
2023/01/04 08:58:17;;;;;;;1.37;1.00;;;15.00;64.00;15.70;100877.00;;;;5011360;28;20250;-47
2023/01/04 09:00:43;;;;;;;1.03;1.00;;;15.10;63.70;15.80;100950.00;;;;5011654;28;20287;-44
2023/01/04 09:03:09;;;;;;;2.97;1.00;;;15.20;63.40;15.90;100949.00;;;;5012528;28;20176;-46
2023/01/04 09:05:34;;;;;;;6.93;1.13;;;15.40;63.20;16.00;100953.00;;;;5011756;28;20171;-48
2023/01/04 09:08:00;;;;;;;6.90;1.60;;;15.50;63.10;16.10;100944.00;;;;5012603;28;20176;-45
2023/01/04 09:10:26;;;;;;;3.43;1.47;;;15.70;62.90;16.20;100938.00;;;;5012551;28;20183;-47
2023/01/04 09:12:52;;;;;;;9.57;1.63;;;15.80;62.90;16.30;100951.00;;;;5012191;28;20198;-47
2023/01/04 09:15:18;;;;;;;8.43;1.67;;;16.00;63.10;16.40;100954.00;;;;5011645;28;20664;-47
2023/01/04 09:17:43;;;;;;;7.10;1.63;;;16.20;62.90;16.60;100957.00;;;;5015668;28;20183;-47
2023/01/04 09:20:09;;;;;;;7.17;1.47;;;16.40;62.80;16.70;100942.00;;;;5020604;28;20180;-47
2023/01/04 09:22:35;;;;;;;8.63;1.60;;;16.50;62.60;16.80;100950.00;;;;5018618;28;20182;-47
2023/01/04 09:25:01;;;;;;;8.83;1.53;;;16.70;62.50;16.90;100957.00;;;;5019246;28;20209;-48
2023/01/04 09:27:26;;;;;;;4.17;1.37;;;16.80;62.40;17.00;100952.00;;;;5012107;28;20291;-48
2023/01/04 09:29:52;;;;;;;7.53;1.53;;;16.90;62.20;17.20;100959.00;;;;5012073;28;20176;-48
2023/01/04 09:32:18;;;;;;;5.30;1.30;;;17.00;62.30;17.30;100950.00;;;;5011342;28;20175;-48
2023/01/04 09:34:44;;;;;;;4.37;1.40;;;17.10;63.50;17.40;100945.00;;;;5010727;28;20544;-47
2023/01/04 09:37:10;;;;;;;5.60;1.43;;;17.10;63.50;17.50;100827.00;;;;5010804;28;20199;-47
2023/01/04 09:39:36;;;;;;;4.87;1.57;;;17.30;62.90;17.60;100939.00;;;;5000394;28;20171;-48
2023/01/04 09:42:05;;;;;;;5.53;1.70;;;17.40;62.40;17.60;100936.00;;;;5010618;28;20769;-49
2023/01/04 09:44:38;;;;;;;6.50;1.67;;;17.50;62.30;17.80;100937.00;;;;5010860;28;20707;-47
2023/01/04 09:47:18;;;;;;;8.23;1.80;;;17.60;62.40;17.90;100926.00;;;;5012764;28;20158;-46
2023/01/04 09:50:01;;;;;;;6.13;1.50;;;17.60;62.40;17.90;100836.00;;;;5009067;28;20192;-45
2023/01/04 09:53:01;;;;;;;7.83;1.40;;;17.70;62.20;18.00;100853.00;;;;4994955;28;20222;-47
2023/01/04 09:55:39;;;;;;;4.27;1.50;;;17.70;62.30;18.10;100925.00;;;;4997598;28;20195;-45
2023/01/04 09:58:31;;;;;;;5.00;1.63;;;17.90;62.40;18.20;100932.00;;;;5006692;28;20174;-45
2023/01/04 10:01:07;;;;;;;6.40;1.37;;;17.90;62.20;18.30;100873.00;;;;5000933;28;20225;-46
2023/01/04 10:03:34;;;;;;;3.20;1.43;;;18.10;62.10;18.30;100834.00;;;;4983206;28;20686;-45
2023/01/04 10:06:00;;;;;;;3.00;1.30;;;18.10;62.00;18.40;100917.00;;;;4990978;28;20189;-46
2023/01/04 10:08:26;;;;;;;3.70;1.30;;;18.20;62.00;18.50;100914.00;;;;4994574;28;20167;-46
2023/01/04 10:11:04;;;;;;;5.60;1.40;;;18.40;61.90;18.60;100836.00;;;;4994246;28;20184;-46
2023/01/04 10:13:40;;;;;;;4.00;1.20;;;18.30;61.80;18.60;100898.00;;;;5010894;28;20813;-46
2023/01/04 10:16:56;;;;;;;3.13;1.50;;;18.40;61.90;18.70;100925.00;;;;4997917;28;20265;-46
2023/01/04 10:19:53;;;;;;;3.87;1.50;;;18.40;61.80;18.70;100914.00;;;;5010968;28;20200;-45
2023/01/04 10:22:22;;;;;;;2.13;1.20;;;18.40;62.20;18.80;100925.00;;;;5011897;28;20201;-46
2023/01/04 10:25:37;;;;;;;4.07;1.30;;;18.50;62.40;18.80;100875.00;;;;4994721;28;20264;-46
2023/01/04 10:28:38;;;;;;;2.93;1.13;;;18.50;63.50;18.80;100826.00;;;;5004649;28;20221;-45
2023/01/04 10:31:35;;;;;;;4.17;1.30;;;18.40;64.10;18.80;100912.00;;;;5010361;28;20321;-45
2023/01/04 10:34:41;;;;;;;2.03;1.33;;;18.40;64.40;18.90;100907.00;;;;5010408;28;20582;-45
2023/01/04 10:37:23;;;;;;;3.57;1.40;;;18.40;64.50;18.80;100854.00;;;;5010299;28;20189;-46
2023/01/04 10:39:54;;;;;;;3.60;1.50;;;18.40;64.80;18.80;100905.00;;;;5010445;28;20172;-46
2023/01/04 10:42:33;;;;;;;4.57;1.50;;;18.30;64.70;18.80;100899.00;;;;5015164;28;20259;-45
2023/01/04 10:45:17;;;;;;;3.37;1.40;;;18.30;64.90;18.80;100906.00;;;;5018745;28;20204;-45
2023/01/04 10:48:13;;;;;;;5.47;1.60;;;18.30;65.10;18.80;100827.00;;;;5017403;28;20174;-45
2023/01/04 10:50:57;;;;;;;3.23;1.47;;;18.20;65.00;18.80;100890.00;;;;5010861;28;20180;-46
2023/01/04 10:54:30;;;;;;;4.50;1.40;;;18.10;65.20;18.80;100905.00;;;;4994467;28;20648;-47
2023/01/04 10:57:28;;;;;;;3.90;1.47;;;18.10;65.40;18.70;100863.00;;;;5006428;28;20202;-46
2023/01/04 11:00:04;;;;;;;3.03;1.47;;;18.00;65.40;18.70;100887.00;;;;5010541;28;20159;-45
2023/01/04 11:02:56;;;;;;;3.03;1.40;;;18.00;65.40;18.70;100885.00;;;;4994510;28;20186;-45
2023/01/04 11:06:11;;;;;;;4.00;1.53;;;17.90;65.20;18.70;100880.00;;;;4997605;28;20203;-46
2023/01/04 11:08:55;;;;;;;3.60;1.20;;;17.90;65.20;18.60;100873.00;;;;5018287;28;20222;-46
2023/01/04 11:11:39;;;;;;;1.80;1.20;;;17.90;65.20;18.60;100869.00;;;;5010233;28;20254;-46
2023/01/04 11:14:05;;;;;;;1.57;1.20;;;17.80;65.10;18.60;100876.00;;;;5010192;28;20187;-45
2023/01/04 11:16:31;;;;;;;2.33;1.20;;;17.80;65.10;18.60;100786.00;;;;5010699;28;20531;-45
2023/01/04 11:18:56;;;;;;;1.17;1.07;;;17.80;65.20;18.60;100863.00;;;;5009883;28;20191;-45
2023/01/04 11:21:26;;;;;;;2.27;1.23;;;17.70;65.00;18.50;100860.00;;;;5009473;28;20234;-45
2023/01/04 11:23:56;;;;;;;1.40;1.10;;;17.70;65.10;18.50;100867.00;;;;5009120;28;20202;-45
2023/01/04 11:26:28;;;;;;;2.63;1.23;;;17.70;65.10;18.50;100856.00;;;;5010254;28;20543;-45
2023/01/04 11:29:11;;;;;;;1.43;1.00;;;17.70;65.10;18.50;100790.00;;;;4993586;28;20162;-46
2023/01/04 11:31:48;;;;;;;1.80;1.00;;;17.70;65.10;18.50;100846.00;;;;4993504;28;20170;-45
2023/01/04 11:34:14;;;;;;;2.40;1.10;;;17.60;65.00;18.50;100847.00;;;;4993736;28;20191;-45
2023/01/04 11:36:45;;;;;;;1.03;0.93;;;17.60;64.90;18.40;100834.00;;;;4993858;28;20655;-47
2023/01/04 11:39:23;;;;;;;2.00;0.90;;;17.60;65.10;18.40;100824.00;;;;4993231;28;20178;-46
2023/01/04 11:42:03;;;;;;;3.23;1.23;;;17.60;65.10;18.40;100833.00;;;;5004647;28;20202;-45
2023/01/04 11:44:32;;;;;;;1.37;1.23;;;17.60;65.20;18.40;100829.00;;;;4993394;28;20191;-46
2023/01/04 11:47:19;;;;;;;2.33;1.00;;;17.50;65.10;18.40;100824.00;;;;5008528;28;20175;-46
2023/01/04 11:49:45;;;;;;;3.83;1.33;;;17.50;65.30;18.40;100752.00;;;;5008673;28;20166;-48
2023/01/04 11:52:35;;;;;;;2.30;1.20;;;17.60;65.40;18.40;100827.00;;;;5008711;28;20186;-46